sensor_id;sensor_type;location;lat;lon;timestamp;pressure;altitude;pressure_sealevel;temperature;humidity
21361;BME280;10839;43.206;23.550;2022-08-19T00:00:14;96774.03;;;26.80;43.81
21361;BME280;10839;43.206;23.550;2022-08-19T00:02:41;96770.56;;;26.88;43.58
21361;BME280;10839;43.206;23.550;2022-08-19T00:05:09;96767.91;;;26.83;43.69
21361;BME280;10839;43.206;23.550;2022-08-19T00:07:36;96767.91;;;26.83;43.56
21361;BME280;10839;43.206;23.550;2022-08-19T00:10:05;96768.28;;;26.63;44.22
21361;BME280;10839;43.206;23.550;2022-08-19T00:12:33;96773.41;;;26.56;44.53
21361;BME280;10839;43.206;23.550;2022-08-19T00:14:59;96774.00;;;26.53;44.45
21361;BME280;10839;43.206;23.550;2022-08-19T00:17:25;96777.69;;;26.62;44.23
21361;BME280;10839;43.206;23.550;2022-08-19T00:19:51;96779.72;;;26.43;44.76
21361;BME280;10839;43.206;23.550;2022-08-19T00:22:17;96784.63;;;26.46;44.67
21361;BME280;10839;43.206;23.550;2022-08-19T00:24:45;96776.44;;;26.41;44.98
21361;BME280;10839;43.206;23.550;2022-08-19T00:27:13;96784.00;;;26.35;45.25
21361;BME280;10839;43.206;23.550;2022-08-19T00:29:39;96784.91;;;26.31;44.79
21361;BME280;10839;43.206;23.550;2022-08-19T00:32:05;96784.81;;;26.36;45.08
21361;BME280;10839;43.206;23.550;2022-08-19T00:34:31;96789.38;;;26.13;45.44
21361;BME280;10839;43.206;23.550;2022-08-19T00:36:57;96766.78;;;26.11;45.24
21361;BME280;10839;43.206;23.550;2022-08-19T00:39:23;96788.91;;;26.25;45.21
21361;BME280;10839;43.206;23.550;2022-08-19T00:41:51;96773.72;;;26.09;45.65
21361;BME280;10839;43.206;23.550;2022-08-19T00:44:23;96780.66;;;26.06;45.91
21361;BME280;10839;43.206;23.550;2022-08-19T00:46:51;96772.53;;;26.15;45.42
21361;BME280;10839;43.206;23.550;2022-08-19T00:49:20;96779.56;;;26.21;45.64
21361;BME280;10839;43.206;23.550;2022-08-19T00:51:51;96781.81;;;26.19;45.51
21361;BME280;10839;43.206;23.550;2022-08-19T00:54:19;96779.63;;;26.02;45.81
21361;BME280;10839;43.206;23.550;2022-08-19T00:56:45;96781.81;;;25.87;46.40
21361;BME280;10839;43.206;23.550;2022-08-19T00:59:11;96779.38;;;25.67;46.99
21361;BME280;10839;43.206;23.550;2022-08-19T01:01:40;96770.88;;;25.63;47.21
21361;BME280;10839;43.206;23.550;2022-08-19T01:04:07;96772.34;;;25.56;47.30
21361;BME280;10839;43.206;23.550;2022-08-19T01:06:35;96778.47;;;25.71;46.76
21361;BME280;10839;43.206;23.550;2022-08-19T01:09:04;96777.03;;;25.74;46.87
21361;BME280;10839;43.206;23.550;2022-08-19T01:11:32;96782.22;;;25.62;46.89
21361;BME280;10839;43.206;23.550;2022-08-19T01:13:59;96777.19;;;25.64;46.94
21361;BME280;10839;43.206;23.550;2022-08-19T01:16:27;96772.81;;;25.63;46.92
21361;BME280;10839;43.206;23.550;2022-08-19T01:18:54;96775.56;;;25.63;47.03
21361;BME280;10839;43.206;23.550;2022-08-19T01:21:28;96770.13;;;25.58;46.85
21361;BME280;10839;43.206;23.550;2022-08-19T01:23:57;96771.84;;;25.54;47.49
21361;BME280;10839;43.206;23.550;2022-08-19T01:26:24;96771.25;;;25.57;47.01
21361;BME280;10839;43.206;23.550;2022-08-19T01:28:53;96768.75;;;25.42;47.64
21361;BME280;10839;43.206;23.550;2022-08-19T01:31:23;96776.69;;;25.43;47.31
21361;BME280;10839;43.206;23.550;2022-08-19T01:33:51;96768.75;;;25.42;47.59
21361;BME280;10839;43.206;23.550;2022-08-19T01:36:25;96775.88;;;25.43;47.60
21361;BME280;10839;43.206;23.550;2022-08-19T01:38:52;96771.50;;;25.42;47.46
21361;BME280;10839;43.206;23.550;2022-08-19T01:41:18;96775.94;;;25.56;47.14
21361;BME280;10839;43.206;23.550;2022-08-19T01:43:44;96779.56;;;25.33;47.90
21361;BME280;10839;43.206;23.550;2022-08-19T01:46:10;96773.91;;;25.24;48.11
21361;BME280;10839;43.206;23.550;2022-08-19T01:48:39;96781.28;;;25.29;48.09
21361;BME280;10839;43.206;23.550;2022-08-19T01:51:07;96779.88;;;25.32;47.79
21361;BME280;10839;43.206;23.550;2022-08-19T01:53:34;96785.53;;;25.21;48.06
21361;BME280;10839;43.206;23.550;2022-08-19T01:56:01;96775.53;;;25.25;48.17
21361;BME280;10839;43.206;23.550;2022-08-19T01:58:35;96777.78;;;25.23;48.05
21361;BME280;10839;43.206;23.550;2022-08-19T02:01:05;96770.97;;;25.40;47.59
21361;BME280;10839;43.206;23.550;2022-08-19T02:03:31;96775.53;;;25.25;47.98
21361;BME280;10839;43.206;23.550;2022-08-19T02:05:59;96770.03;;;25.25;47.93
21361;BME280;10839;43.206;23.550;2022-08-19T02:08:27;96781.97;;;25.40;47.36
21361;BME280;10839;43.206;23.550;2022-08-19T02:10:53;96780.25;;;25.44;47.62
21361;BME280;10839;43.206;23.550;2022-08-19T02:13:19;96784.69;;;25.21;48.26
21361;BME280;10839;43.206;23.550;2022-08-19T02:15:45;96778.34;;;25.20;48.46
21361;BME280;10839;43.206;23.550;2022-08-19T02:18:12;96775.69;;;25.15;48.24
21361;BME280;10839;43.206;23.550;2022-08-19T02:20:40;96772.41;;;25.13;48.58
21361;BME280;10839;43.206;23.550;2022-08-19T02:23:07;96776.88;;;25.09;48.54
21361;BME280;10839;43.206;23.550;2022-08-19T02:25:33;96784.59;;;25.07;48.98
21361;BME280;10839;43.206;23.550;2022-08-19T02:27:59;96776.94;;;25.04;49.04
21361;BME280;10839;43.206;23.550;2022-08-19T02:30:26;96774.78;;;25.01;48.95
21361;BME280;10839;43.206;23.550;2022-08-19T02:32:52;96780.53;;;25.05;48.75
21361;BME280;10839;43.206;23.550;2022-08-19T02:35:19;96784.00;;;25.10;48.91
21361;BME280;10839;43.206;23.550;2022-08-19T02:37:44;96788.03;;;24.99;49.06
21361;BME280;10839;43.206;23.550;2022-08-19T02:40:30;96777.72;;;24.86;49.42
21361;BME280;10839;43.206;23.550;2022-08-19T02:43:04;96787.78;;;24.96;49.38
21361;BME280;10839;43.206;23.550;2022-08-19T02:45:37;96783.34;;;25.00;48.93
21361;BME280;10839;43.206;23.550;2022-08-19T02:48:03;96778.63;;;25.00;48.92
21361;BME280;10839;43.206;23.550;2022-08-19T02:50:30;96786.75;;;24.92;49.66
21361;BME280;10839;43.206;23.550;2022-08-19T02:52:57;96783.47;;;24.90;49.37
21361;BME280;10839;43.206;23.550;2022-08-19T02:55:23;96784.13;;;25.00;49.15
21361;BME280;10839;43.206;23.550;2022-08-19T02:57:48;96789.16;;;24.98;49.21
21361;BME280;10839;43.206;23.550;2022-08-19T03:00:14;96792.06;;;25.07;48.90
21361;BME280;10839;43.206;23.550;2022-08-19T03:02:41;96796.34;;;24.94;49.23
21361;BME280;10839;43.206;23.550;2022-08-19T03:05:08;96797.28;;;24.85;49.64
21361;BME280;10839;43.206;23.550;2022-08-19T03:07:36;96788.47;;;25.06;49.05
21361;BME280;10839;43.206;23.550;2022-08-19T03:10:03;96797.66;;;24.78;49.74
21361;BME280;10839;43.206;23.550;2022-08-19T03:12:29;96797.53;;;24.88;49.58
21361;BME280;10839;43.206;23.550;2022-08-19T03:14:55;96805.72;;;24.93;49.39
21361;BME280;10839;43.206;23.550;2022-08-19T03:17:21;96807.22;;;25.04;49.30
21361;BME280;10839;43.206;23.550;2022-08-19T03:19:47;96816.09;;;25.01;49.50
21361;BME280;10839;43.206;23.550;2022-08-19T03:22:12;96816.97;;;24.97;49.25
21361;BME280;10839;43.206;23.550;2022-08-19T03:24:38;96808.97;;;24.95;49.48
21361;BME280;10839;43.206;23.550;2022-08-19T03:27:04;96814.63;;;24.85;49.48
21361;BME280;10839;43.206;23.550;2022-08-19T03:29:31;96817.22;;;24.77;49.87
21361;BME280;10839;43.206;23.550;2022-08-19T03:32:00;96816.28;;;24.86;50.00
21361;BME280;10839;43.206;23.550;2022-08-19T03:34:29;96810.13;;;24.66;51.10
21361;BME280;10839;43.206;23.550;2022-08-19T03:36:57;96810.88;;;25.00;49.66
21361;BME280;10839;43.206;23.550;2022-08-19T03:39:24;96813.94;;;24.98;50.59
21361;BME280;10839;43.206;23.550;2022-08-19T03:41:52;96814.06;;;24.88;50.32
21361;BME280;10839;43.206;23.550;2022-08-19T03:44:20;96814.75;;;25.17;49.24
21361;BME280;10839;43.206;23.550;2022-08-19T03:46:54;96811.94;;;25.22;49.53
21361;BME280;10839;43.206;23.550;2022-08-19T03:49:22;96809.34;;;24.65;51.75
21361;BME280;10839;43.206;23.550;2022-08-19T03:51:50;96812.19;;;24.55;51.86
21361;BME280;10839;43.206;23.550;2022-08-19T03:54:21;96812.72;;;24.57;51.61
21361;BME280;10839;43.206;23.550;2022-08-19T03:56:50;96808.44;;;24.46;52.68
21361;BME280;10839;43.206;23.550;2022-08-19T03:59:20;96811.94;;;24.28;53.37
21361;BME280;10839;43.206;23.550;2022-08-19T04:01:56;96810.59;;;24.49;52.96
21361;BME280;10839;43.206;23.550;2022-08-19T04:04:23;96815.84;;;24.98;51.62
21361;BME280;10839;43.206;23.550;2022-08-19T04:06:50;96827.34;;;26.35;48.24
21361;BME280;10839;43.206;23.550;2022-08-19T04:09:17;96819.88;;;27.08;46.49
21361;BME280;10839;43.206;23.550;2022-08-19T04:11:47;96820.47;;;27.32;45.21
21361;BME280;10839;43.206;23.550;2022-08-19T04:14:18;96814.63;;;27.83;44.38
21361;BME280;10839;43.206;23.550;2022-08-19T04:16:46;96815.69;;;28.62;42.78
21361;BME280;10839;43.206;23.550;2022-08-19T04:19:13;96817.00;;;29.34;40.64
21361;BME280;10839;43.206;23.550;2022-08-19T04:21:39;96812.13;;;31.43;37.73
21361;BME280;10839;43.206;23.550;2022-08-19T04:24:05;96823.22;;;31.72;36.69
21361;BME280;10839;43.206;23.550;2022-08-19T04:26:34;96828.84;;;31.84;35.37
21361;BME280;10839;43.206;23.550;2022-08-19T04:29:05;96830.66;;;32.51;34.47
21361;BME280;10839;43.206;23.550;2022-08-19T04:31:32;96835.41;;;32.95;33.46
21361;BME280;10839;43.206;23.550;2022-08-19T04:34:04;96842.63;;;32.96;33.34
21361;BME280;10839;43.206;23.550;2022-08-19T04:36:33;96833.81;;;32.94;33.29
21361;BME280;10839;43.206;23.550;2022-08-19T04:39:06;96830.19;;;34.41;31.42
21361;BME280;10839;43.206;23.550;2022-08-19T04:41:33;96827.88;;;34.87;30.50
21361;BME280;10839;43.206;23.550;2022-08-19T04:44:31;96840.38;;;35.20;29.82
21361;BME280;10839;43.206;23.550;2022-08-19T04:46:57;96830.44;;;35.23;29.60
21361;BME280;10839;43.206;23.550;2022-08-19T04:49:24;96832.75;;;34.90;29.49
21361;BME280;10839;43.206;23.550;2022-08-19T04:51:51;96838.34;;;36.18;28.95
21361;BME280;10839;43.206;23.550;2022-08-19T04:54:21;96836.47;;;36.79;28.43
21361;BME280;10839;43.206;23.550;2022-08-19T04:56:52;96841.41;;;36.47;29.42
21361;BME280;10839;43.206;23.550;2022-08-19T04:59:19;96844.50;;;36.23;29.59
21361;BME280;10839;43.206;23.550;2022-08-19T05:01:46;96852.94;;;37.45;27.71
21361;BME280;10839;43.206;23.550;2022-08-19T05:04:18;96854.66;;;36.31;29.39
21361;BME280;10839;43.206;23.550;2022-08-19T05:06:49;96849.91;;;37.57;27.80
21361;BME280;10839;43.206;23.550;2022-08-19T05:09:16;96864.09;;;38.42;26.97
21361;BME280;10839;43.206;23.550;2022-08-19T05:11:43;96862.63;;;36.29;29.08
21361;BME280;10839;43.206;23.550;2022-08-19T05:14:10;96858.53;;;36.80;28.99
21361;BME280;10839;43.206;23.550;2022-08-19T05:16:39;96857.88;;;35.33;30.30
21361;BME280;10839;43.206;23.550;2022-08-19T05:19:05;96867.47;;;35.63;30.08
21361;BME280;10839;43.206;23.550;2022-08-19T05:21:49;96876.09;;;34.28;31.26
21361;BME280;10839;43.206;23.550;2022-08-19T05:24:34;96867.97;;;34.23;31.63
21361;BME280;10839;43.206;23.550;2022-08-19T05:27:01;96877.00;;;35.00;30.36
21361;BME280;10839;43.206;23.550;2022-08-19T05:32:38;96871.97;;;35.05;30.10
21361;BME280;10839;43.206;23.550;2022-08-19T05:35:05;96869.38;;;37.23;27.37
21361;BME280;10839;43.206;23.550;2022-08-19T05:37:31;96883.31;;;36.97;27.57
21361;BME280;10839;43.206;23.550;2022-08-19T05:39:57;96873.59;;;36.72;27.72
21361;BME280;10839;43.206;23.550;2022-08-19T05:42:23;96881.41;;;38.14;26.10
21361;BME280;10839;43.206;23.550;2022-08-19T05:44:49;96865.47;;;37.51;26.96
21361;BME280;10839;43.206;23.550;2022-08-19T05:47:15;96870.94;;;39.44;25.08
21361;BME280;10839;43.206;23.550;2022-08-19T05:49:42;96880.91;;;38.98;25.08
21361;BME280;10839;43.206;23.550;2022-08-19T05:52:11;96871.94;;;38.89;25.57
21361;BME280;10839;43.206;23.550;2022-08-19T05:54:39;96869.94;;;40.20;24.00
21361;BME280;10839;43.206;23.550;2022-08-19T05:57:09;96867.41;;;40.66;23.22
21361;BME280;10839;43.206;23.550;2022-08-19T05:59:57;96864.81;;;40.33;23.84
21361;BME280;10839;43.206;23.550;2022-08-19T06:02:26;96859.31;;;39.93;24.00
21361;BME280;10839;43.206;23.550;2022-08-19T06:04:52;96866.47;;;41.65;22.52
21361;BME280;10839;43.206;23.550;2022-08-19T06:07:18;96875.34;;;41.88;22.68
21361;BME280;10839;43.206;23.550;2022-08-19T06:09:44;96876.16;;;42.14;22.32
21361;BME280;10839;43.206;23.550;2022-08-19T06:12:10;96867.28;;;41.62;22.33
21361;BME280;10839;43.206;23.550;2022-08-19T06:14:36;96870.72;;;40.14;24.05
21361;BME280;10839;43.206;23.550;2022-08-19T06:17:02;96867.00;;;39.99;24.41
21361;BME280;10839;43.206;23.550;2022-08-19T06:19:30;96877.09;;;39.16;25.06
21361;BME280;10839;43.206;23.550;2022-08-19T06:21:57;96877.22;;;39.30;25.41
21361;BME280;10839;43.206;23.550;2022-08-19T06:24:26;96879.91;;;39.57;24.73
21361;BME280;10839;43.206;23.550;2022-08-19T06:26:55;96874.78;;;38.92;25.73
21361;BME280;10839;43.206;23.550;2022-08-19T06:29:24;96876.00;;;38.91;25.40
21361;BME280;10839;43.206;23.550;2022-08-19T06:31:52;96891.47;;;39.04;25.71
21361;BME280;10839;43.206;23.550;2022-08-19T06:34:19;96884.69;;;38.79;25.80
21361;BME280;10839;43.206;23.550;2022-08-19T06:36:49;96884.44;;;40.19;24.79
21361;BME280;10839;43.206;23.550;2022-08-19T06:39:20;96895.84;;;39.42;24.69
21361;BME280;10839;43.206;23.550;2022-08-19T06:41:49;96897.34;;;40.20;23.74
21361;BME280;10839;43.206;23.550;2022-08-19T06:44:18;96893.44;;;40.35;24.36
21361;BME280;10839;43.206;23.550;2022-08-19T06:46:45;96894.81;;;40.01;24.75
21361;BME280;10839;43.206;23.550;2022-08-19T06:49:11;96896.44;;;40.70;23.91
21361;BME280;10839;43.206;23.550;2022-08-19T06:51:44;96895.38;;;40.27;23.68
21361;BME280;10839;43.206;23.550;2022-08-19T06:54:13;96899.09;;;40.35;23.89
21361;BME280;10839;43.206;23.550;2022-08-19T06:56:39;96891.25;;;40.11;24.52
21361;BME280;10839;43.206;23.550;2022-08-19T06:59:08;96899.97;;;40.46;24.09
21361;BME280;10839;43.206;23.550;2022-08-19T07:01:39;96908.97;;;39.24;24.81
21361;BME280;10839;43.206;23.550;2022-08-19T07:04:06;96899.91;;;39.44;24.99
21361;BME280;10839;43.206;23.550;2022-08-19T07:06:34;96904.78;;;39.88;24.61
21361;BME280;10839;43.206;23.550;2022-08-19T07:09:01;96905.44;;;40.25;24.46
21361;BME280;10839;43.206;23.550;2022-08-19T07:11:27;96897.34;;;40.20;24.60
21361;BME280;10839;43.206;23.550;2022-08-19T07:13:53;96898.59;;;41.01;24.32
21361;BME280;10839;43.206;23.550;2022-08-19T07:16:20;96904.34;;;41.15;23.69
21361;BME280;10839;43.206;23.550;2022-08-19T07:18:47;96905.09;;;38.69;26.04
21361;BME280;10839;43.206;23.550;2022-08-19T07:21:20;96912.38;;;40.31;24.78
21361;BME280;10839;43.206;23.550;2022-08-19T07:23:48;96906.66;;;40.92;24.01
21361;BME280;10839;43.206;23.550;2022-08-19T07:26:19;96913.72;;;40.58;24.53
21361;BME280;10839;43.206;23.550;2022-08-19T07:28:48;96907.88;;;40.23;24.38
21361;BME280;10839;43.206;23.550;2022-08-19T07:31:17;96908.53;;;40.06;25.17
21361;BME280;10839;43.206;23.550;2022-08-19T07:33:44;96915.47;;;40.77;24.11
21361;BME280;10839;43.206;23.550;2022-08-19T07:36:12;96916.69;;;40.86;24.11
21361;BME280;10839;43.206;23.550;2022-08-19T07:38:41;96917.91;;;40.85;24.23
21361;BME280;10839;43.206;23.550;2022-08-19T07:41:14;96912.03;;;40.39;24.93
21361;BME280;10839;43.206;23.550;2022-08-19T07:43:41;96911.31;;;40.60;24.42
21361;BME280;10839;43.206;23.550;2022-08-19T07:46:09;96904.59;;;40.82;24.16
21361;BME280;10839;43.206;23.550;2022-08-19T07:48:35;96913.09;;;40.96;24.30
21361;BME280;10839;43.206;23.550;2022-08-19T07:51:04;96909.81;;;40.80;24.33
21361;BME280;10839;43.206;23.550;2022-08-19T07:53:33;96917.75;;;40.57;24.51
21361;BME280;10839;43.206;23.550;2022-08-19T07:55:59;96917.00;;;40.67;24.54
21361;BME280;10839;43.206;23.550;2022-08-19T07:58:29;96911.53;;;40.99;24.28
21361;BME280;10839;43.206;23.550;2022-08-19T08:00:55;96908.22;;;40.86;24.38
21361;BME280;10839;43.206;23.550;2022-08-19T08:03:22;96910.72;;;41.05;24.07
21361;BME280;10839;43.206;23.550;2022-08-19T08:06:15;96909.63;;;40.45;24.65
21361;BME280;10839;43.206;23.550;2022-08-19T08:09:02;96910.66;;;40.91;24.35
21361;BME280;10839;43.206;23.550;2022-08-19T08:11:40;96913.13;;;41.03;24.23
21361;BME280;10839;43.206;23.550;2022-08-19T08:14:08;96907.97;;;40.37;24.80
21361;BME280;10839;43.206;23.550;2022-08-19T08:16:38;96911.31;;;40.60;24.45
21361;BME280;10839;43.206;23.550;2022-08-19T08:19:05;96900.44;;;40.62;24.66
21361;BME280;10839;43.206;23.550;2022-08-19T08:21:32;96915.50;;;40.87;24.26
21361;BME280;10839;43.206;23.550;2022-08-19T08:23:58;96913.50;;;40.91;24.22
21361;BME280;10839;43.206;23.550;2022-08-19T08:26:24;96909.72;;;40.59;24.50
21361;BME280;10839;43.206;23.550;2022-08-19T08:28:51;96905.78;;;40.74;24.11
21361;BME280;10839;43.206;23.550;2022-08-19T08:31:17;96903.41;;;40.90;24.32
21361;BME280;10839;43.206;23.550;2022-08-19T08:33:46;96902.66;;;41.04;24.39
21361;BME280;10839;43.206;23.550;2022-08-19T08:36:13;96898.53;;;40.80;24.47
21361;BME280;10839;43.206;23.550;2022-08-19T08:38:42;96901.94;;;40.42;24.36
21361;BME280;10839;43.206;23.550;2022-08-19T08:43:58;96902.47;;;40.65;25.13
21361;BME280;10839;43.206;23.550;2022-08-19T08:46:46;96894.50;;;40.13;25.73
21361;BME280;10839;43.206;23.550;2022-08-19T08:52:11;96900.72;;;40.43;25.58
21361;BME280;10839;43.206;23.550;2022-08-19T08:54:46;96896.78;;;40.58;25.68
21361;BME280;10839;43.206;23.550;2022-08-19T08:57:18;96894.81;;;40.01;26.38
21361;BME280;10839;43.206;23.550;2022-08-19T08:59:48;96892.16;;;39.75;26.87
21361;BME280;10839;43.206;23.550;2022-08-19T09:02:18;96880.69;;;39.53;27.13
21361;BME280;10839;43.206;23.550;2022-08-19T09:04:44;96883.50;;;39.53;26.80
21361;BME280;10839;43.206;23.550;2022-08-19T09:07:21;96884.59;;;39.42;27.30
21361;BME280;10839;43.206;23.550;2022-08-19T09:09:51;96883.75;;;39.82;26.79
21361;BME280;10839;43.206;23.550;2022-08-19T09:15:11;96890.75;;;39.14;26.62
21361;BME280;10839;43.206;23.550;2022-08-19T09:17:37;96877.34;;;39.41;26.57
21361;BME280;10839;43.206;23.550;2022-08-19T09:20:18;96882.00;;;39.26;26.15
21361;BME280;10839;43.206;23.550;2022-08-19T09:22:44;96875.63;;;39.29;26.69
21361;BME280;10839;43.206;23.550;2022-08-19T09:25:13;96870.22;;;39.50;26.55
21361;BME280;10839;43.206;23.550;2022-08-19T09:27:40;96873.28;;;39.38;26.91
21361;BME280;10839;43.206;23.550;2022-08-19T09:30:10;96864.41;;;39.36;26.11
21361;BME280;10839;43.206;23.550;2022-08-19T09:32:36;96860.63;;;39.59;26.08
21361;BME280;10839;43.206;23.550;2022-08-19T09:35:03;96867.38;;;39.10;26.48
21361;BME280;10839;43.206;23.550;2022-08-19T09:37:29;96863.91;;;39.24;26.39
21361;BME280;10839;43.206;23.550;2022-08-19T09:39:54;96868.03;;;39.00;26.63
21361;BME280;10839;43.206;23.550;2022-08-19T09:42:20;96865.81;;;39.16;26.46
21361;BME280;10839;43.206;23.550;2022-08-19T09:44:46;96867.78;;;38.76;26.99
21361;BME280;10839;43.206;23.550;2022-08-19T09:47:13;96862.59;;;39.14;26.60
21361;BME280;10839;43.206;23.550;2022-08-19T09:49:40;96854.09;;;39.47;26.43
21361;BME280;10839;43.206;23.550;2022-08-19T09:52:09;96861.44;;;39.59;26.45
21361;BME280;10839;43.206;23.550;2022-08-19T09:54:35;96852.75;;;39.34;26.30
21361;BME280;10839;43.206;23.550;2022-08-19T09:57:01;96854.09;;;39.47;26.08
21361;BME280;10839;43.206;23.550;2022-08-19T09:59:28;96859.28;;;39.05;26.47
21361;BME280;10839;43.206;23.550;2022-08-19T10:01:54;96852.66;;;39.27;26.88
21361;BME280;10839;43.206;23.550;2022-08-19T10:04:20;96849.97;;;39.41;26.19
21361;BME280;10839;43.206;23.550;2022-08-19T10:06:48;96842.03;;;39.50;25.89
21361;BME280;10839;43.206;23.550;2022-08-19T10:09:15;96840.44;;;39.49;26.30
21361;BME280;10839;43.206;23.550;2022-08-19T10:11:44;96837.78;;;39.30;26.07
21361;BME280;10839;43.206;23.550;2022-08-19T10:14:15;96842.47;;;39.12;26.28
21361;BME280;10839;43.206;23.550;2022-08-19T10:16:42;96836.19;;;39.29;26.04
21361;BME280;10839;43.206;23.550;2022-08-19T10:19:09;96837.13;;;39.44;26.18
21361;BME280;10839;43.206;23.550;2022-08-19T10:21:35;96839.81;;;38.93;26.19
21361;BME280;10839;43.206;23.550;2022-08-19T10:24:04;96835.13;;;39.04;26.05
21361;BME280;10839;43.206;23.550;2022-08-19T10:26:36;96837.41;;;38.95;26.00
21361;BME280;10839;43.206;23.550;2022-08-19T10:29:03;96834.25;;;39.00;26.29
21361;BME280;10839;43.206;23.550;2022-08-19T10:31:32;96835.69;;;39.20;25.95
21361;BME280;10839;43.206;23.550;2022-08-19T10:33:59;96835.13;;;39.04;26.56
21361;BME280;10839;43.206;23.550;2022-08-19T10:36:31;96820.28;;;39.07;26.57
21361;BME280;10839;43.206;23.550;2022-08-19T10:38:59;96822.47;;;39.24;25.98
21361;BME280;10839;43.206;23.550;2022-08-19T10:41:32;96816.13;;;39.34;26.03
21361;BME280;10839;43.206;23.550;2022-08-19T10:44:03;96812.00;;;38.88;26.11
21361;BME280;10839;43.206;23.550;2022-08-19T10:46:32;96818.75;;;38.80;26.27
21361;BME280;10839;43.206;23.550;2022-08-19T10:49:00;96825.38;;;38.98;26.05
21361;BME280;10839;43.206;23.550;2022-08-19T10:51:26;96813.19;;;38.87;25.77
21361;BME280;10839;43.206;23.550;2022-08-19T10:54:10;96812.13;;;38.62;26.04
21361;BME280;10839;43.206;23.550;2022-08-19T10:56:36;96812.91;;;38.59;26.31
21361;BME280;10839;43.206;23.550;2022-08-19T10:59:24;96813.16;;;38.84;25.84
21361;BME280;10839;43.206;23.550;2022-08-19T11:01:54;96804.75;;;38.54;26.04
21361;BME280;10839;43.206;23.550;2022-08-19T11:04:23;96812.97;;;38.66;25.86
21361;BME280;10839;43.206;23.550;2022-08-19T11:06:49;96810.34;;;39.20;25.78
21361;BME280;10839;43.206;23.550;2022-08-19T11:09:18;96803.47;;;39.14;25.00
21361;BME280;10839;43.206;23.550;2022-08-19T11:11:44;96807.94;;;39.22;24.89
21361;BME280;10839;43.206;23.550;2022-08-19T11:14:15;96804.84;;;39.34;25.00
21361;BME280;10839;43.206;23.550;2022-08-19T11:16:42;96802.91;;;39.02;24.90
21361;BME280;10839;43.206;23.550;2022-08-19T11:19:10;96804.06;;;39.37;24.66
21361;BME280;10839;43.206;23.550;2022-08-19T11:21:42;96793.63;;;38.61;24.42
21361;BME280;10839;43.206;23.550;2022-08-19T11:24:15;96798.25;;;38.80;25.09
21361;BME280;10839;43.206;23.550;2022-08-19T11:26:42;96795.75;;;39.08;24.73
21361;BME280;10839;43.206;23.550;2022-08-19T11:29:10;96786.31;;;39.33;24.28
21361;BME280;10839;43.206;23.550;2022-08-19T11:31:38;96781.56;;;39.41;24.60
21361;BME280;10839;43.206;23.550;2022-08-19T11:34:07;96788.84;;;39.45;24.19
21361;BME280;10839;43.206;23.550;2022-08-19T11:36:37;96780.56;;;39.19;24.10
21361;BME280;10839;43.206;23.550;2022-08-19T11:39:05;96776.53;;;39.20;24.16
21361;BME280;10839;43.206;23.550;2022-08-19T11:41:31;96777.06;;;39.36;24.07
21361;BME280;10839;43.206;23.550;2022-08-19T11:43:58;96785.72;;;39.58;23.89
21361;BME280;10839;43.206;23.550;2022-08-19T11:46:25;96776.78;;;39.48;23.73
21361;BME280;10839;43.206;23.550;2022-08-19T11:48:51;96767.16;;;39.49;23.55
21361;BME280;10839;43.206;23.550;2022-08-19T11:51:21;96755.03;;;39.45;23.47
21361;BME280;10839;43.206;23.550;2022-08-19T11:53:47;96762.81;;;39.15;23.24
21361;BME280;10839;43.206;23.550;2022-08-19T11:56:13;96757.81;;;38.98;24.26
21361;BME280;10839;43.206;23.550;2022-08-19T11:58:40;96760.72;;;38.69;24.93
21361;BME280;10839;43.206;23.550;2022-08-19T12:01:10;96746.69;;;39.12;24.20
21361;BME280;10839;43.206;23.550;2022-08-19T12:03:38;96759.50;;;38.33;24.83
21361;BME280;10839;43.206;23.550;2022-08-19T12:06:09;96748.34;;;37.81;24.80
21361;BME280;10839;43.206;23.550;2022-08-19T12:08:36;96752.06;;;37.13;25.25
21361;BME280;10839;43.206;23.550;2022-08-19T12:11:02;96740.84;;;37.13;25.41
21361;BME280;10839;43.206;23.550;2022-08-19T12:13:29;96742.09;;;36.48;26.01
21361;BME280;10839;43.206;23.550;2022-08-19T12:15:55;96741.03;;;36.56;25.66
21361;BME280;10839;43.206;23.550;2022-08-19T12:18:22;96730.66;;;36.79;25.64
21361;BME280;10839;43.206;23.550;2022-08-19T12:20:51;96738.53;;;37.19;25.93
21361;BME280;10839;43.206;23.550;2022-08-19T12:23:17;96723.50;;;37.31;25.71
21361;BME280;10839;43.206;23.550;2022-08-19T12:25:45;96727.16;;;37.61;26.00
21361;BME280;10839;43.206;23.550;2022-08-19T12:28:22;96734.50;;;37.69;24.76
21361;BME280;10839;43.206;23.550;2022-08-19T12:30:49;96725.22;;;37.39;25.42
21361;BME280;10839;43.206;23.550;2022-08-19T12:33:18;96724.38;;;37.35;25.67
21361;BME280;10839;43.206;23.550;2022-08-19T12:35:45;96722.66;;;37.27;25.35
21361;BME280;10839;43.206;23.550;2022-08-19T12:38:15;96723.75;;;37.45;25.22
21361;BME280;10839;43.206;23.550;2022-08-19T12:40:41;96727.63;;;37.37;24.71
21361;BME280;10839;43.206;23.550;2022-08-19T12:43:10;96726.88;;;37.40;25.26
21361;BME280;10839;43.206;23.550;2022-08-19T12:45:37;96721.78;;;37.75;24.68
21361;BME280;10839;43.206;23.550;2022-08-19T12:48:04;96718.41;;;36.68;25.69
21361;BME280;10839;43.206;23.550;2022-08-19T12:50:31;96707.78;;;36.36;25.91
21361;BME280;10839;43.206;23.550;2022-08-19T12:52:57;96716.78;;;36.67;25.60
21361;BME280;10839;43.206;23.550;2022-08-19T12:55:23;96715.81;;;37.01;25.55
21361;BME280;10839;43.206;23.550;2022-08-19T12:57:50;96704.47;;;37.47;25.42
21361;BME280;10839;43.206;23.550;2022-08-19T13:00:20;96710.22;;;37.28;25.79
21361;BME280;10839;43.206;23.550;2022-08-19T13:02:49;96707.06;;;37.06;25.70
21361;BME280;10839;43.206;23.550;2022-08-19T13:05:22;96709.66;;;37.18;25.59
21361;BME280;10839;43.206;23.550;2022-08-19T13:07:49;96710.97;;;37.51;25.21